createdAt,value
2019-05-22T00:00:11.325Z,85.29
2019-05-22T00:02:41.268Z,85.93
2019-05-22T00:05:11.591Z,86.02
2019-05-22T00:07:41.900Z,87.36
2019-05-22T00:10:11.838Z,87.82
2019-05-22T00:12:46.911Z,88.05
2019-05-22T00:15:11.732Z,88.53
2019-05-22T00:17:41.663Z,89.08
2019-05-22T00:20:11.610Z,90.01
2019-05-22T00:22:41.538Z,90.19
2019-05-22T00:25:11.478Z,90.33
2019-05-22T00:27:41.409Z,90.26
2019-05-22T00:30:11.743Z,90.66
2019-05-22T00:32:41.664Z,90.19
2019-05-22T00:35:11.642Z,89.85
2019-05-22T00:37:41.565Z,89.52
2019-05-22T00:40:11.891Z,89.66
2019-05-22T00:42:41.445Z,89.68
2019-05-22T00:45:11.701Z,88.92
2019-05-22T00:47:41.627Z,88.36
2019-05-22T00:50:11.571Z,88.05
2019-05-22T00:52:41.500Z,87.02
2019-05-22T00:55:11.776Z,87.59
2019-05-22T00:57:42.110Z,87.23
2019-05-22T01:00:12.045Z,87.07
2019-05-22T01:02:42.260Z,86.29
2019-05-22T01:05:12.214Z,86.39
2019-05-22T01:07:42.143Z,86.12
2019-05-22T03:15:37.290Z,84.95
2019-05-22T03:18:07.243Z,85.26
2019-05-22T03:20:37.449Z,85.65
2019-05-22T03:23:34.784Z,85.77
2019-05-22T03:26:04.714Z,85.88
2019-05-22T03:28:34.665Z,86.39
2019-05-22T03:31:04.981Z,85.46
2019-05-22T03:33:35.366Z,85.51
2019-05-22T03:36:08.167Z,85.29
2019-05-22T03:38:38.117Z,84.75
2019-05-22T03:41:08.506Z,85.60
2019-05-22T03:43:38.334Z,85.90
2019-05-22T03:48:53.026Z,85.68
2019-05-22T03:51:22.942Z,85.69
2019-05-22T03:53:52.876Z,86.33
2019-05-22T03:56:22.818Z,86.35
2019-05-22T03:58:52.771Z,85.62
2019-05-22T04:01:22.705Z,85.45
2019-05-22T04:03:53.002Z,85.33
2019-05-22T04:06:22.935Z,85.92
2019-05-22T04:08:52.883Z,85.40
2019-05-22T04:11:23.125Z,85.58
2019-05-22T04:13:53.077Z,86.21
2019-05-22T04:16:23.000Z,86.47
2019-05-22T04:21:32.623Z,86.76
2019-05-22T04:26:42.180Z,87.42
2019-05-22T04:29:12.133Z,87.25
2019-05-22T04:31:48.240Z,87.71
2019-05-22T04:34:18.429Z,87.36
2019-05-22T04:36:48.377Z,87.47
2019-05-22T04:39:21.599Z,87.16
2019-05-22T04:41:51.506Z,87.29
2019-05-22T04:44:21.478Z,87.02
2019-05-22T04:49:31.066Z,87.14
2019-05-22T04:54:40.334Z,87.73
2019-05-22T04:57:10.250Z,87.71
2019-05-22T04:59:40.521Z,88.30
2019-05-22T05:02:10.847Z,87.70
2019-05-22T05:07:20.705Z,87.60
2019-05-22T05:09:50.658Z,87.70
2019-05-22T05:12:20.935Z,87.79
2019-05-22T05:14:51.210Z,87.73
2019-05-22T05:17:21.132Z,87.46
2019-05-22T05:19:51.051Z,87.42
2019-05-22T05:25:00.317Z,87.65
2019-05-22T05:27:30.228Z,87.83
2019-05-22T05:30:00.173Z,88.17
2019-05-22T05:32:30.126Z,88.08
2019-05-22T05:35:00.423Z,88.12
2019-05-22T05:37:30.342Z,87.52
2019-05-22T05:40:03.318Z,87.97
2019-05-22T05:42:33.539Z,88.02
2019-05-22T05:45:03.471Z,87.73
2019-05-22T05:47:33.408Z,88.69
2019-05-22T05:50:03.360Z,89.24
2019-05-22T05:52:33.579Z,88.90
2019-05-22T05:55:03.535Z,88.87
2019-05-22T05:57:33.815Z,88.53
2019-05-22T06:00:03.769Z,89.77
2019-05-22T06:02:33.695Z,89.45
2019-05-22T06:07:42.988Z,88.74
2019-05-22T06:10:25.202Z,88.26
2019-05-22T06:12:55.127Z,88.23
2019-05-22T06:15:46.876Z,88.27
2019-05-22T06:18:31.417Z,88.60
2019-05-22T06:21:04.193Z,88.12
2019-05-22T06:23:31.675Z,87.50
2019-05-22T06:26:01.689Z,87.23
2019-05-22T06:36:41.050Z,86.07
2019-05-22T06:39:11.249Z,86.88
2019-05-22T06:41:41.184Z,86.28
2019-05-22T06:44:26.058Z,86.29
2019-05-22T06:46:56.026Z,85.64
2019-05-22T06:49:31.858Z,85.43
2019-05-22T06:52:01.905Z,85.60
2019-05-22T06:54:32.017Z,85.71
2019-05-22T06:57:02.247Z,84.84
2019-05-22T06:59:32.181Z,85.10
2019-05-22T07:02:02.130Z,84.67
2019-05-22T07:07:12.160Z,84.28
2019-05-22T07:09:41.317Z,83.95
2019-05-22T07:12:11.607Z,83.78
2019-05-22T07:17:20.561Z,83.92
2019-05-22T07:19:50.807Z,84.60
2019-05-22T07:22:21.010Z,83.16
2019-05-22T07:24:50.955Z,83.19
2019-05-22T07:27:23.894Z,82.78
2019-05-22T07:29:53.831Z,83.04
2019-05-22T07:32:23.769Z,81.98
2019-05-22T07:34:53.986Z,82.49
2019-05-22T07:37:23.940Z,82.13
2019-05-22T07:42:33.552Z,81.78
2019-05-22T07:45:03.499Z,81.41
2019-05-22T07:47:33.430Z,81.97
2019-05-22T07:50:03.373Z,81.37
2019-05-22T07:52:33.321Z,80.94
2019-05-22T07:57:42.870Z,81.57
2019-05-22T08:00:12.799Z,80.43
2019-05-22T08:05:24.831Z,82.19
2019-05-22T08:07:54.747Z,82.28
2019-05-22T08:10:24.663Z,82.76
2019-05-22T08:12:54.621Z,83.22
2019-05-22T08:15:24.544Z,84.45
2019-05-22T08:17:54.763Z,84.23
2019-05-22T08:20:25.004Z,84.04
2019-05-22T08:22:54.938Z,84.04
2019-05-22T08:25:24.893Z,84.08
2019-05-22T08:27:54.813Z,84.91
2019-05-22T08:30:24.767Z,85.42
2019-05-22T08:32:54.708Z,86.16
2019-05-22T08:35:24.660Z,85.33
2019-05-22T08:37:54.595Z,86.02
2019-05-22T08:40:24.529Z,85.56
2019-05-22T08:42:54.458Z,86.42
2019-05-22T08:45:24.467Z,85.56
2019-05-22T08:47:54.331Z,85.86
2019-05-22T08:50:24.316Z,85.44
2019-05-22T08:52:54.569Z,83.74
2019-05-22T08:55:24.511Z,84.31
2019-05-22T08:57:54.477Z,84.18
2019-05-22T09:00:24.416Z,84.12
2019-05-22T09:02:54.336Z,83.70
2019-05-22T09:05:24.304Z,83.23
2019-05-22T09:07:54.203Z,83.47
2019-05-22T09:10:26.248Z,83.18
2019-05-22T09:12:54.081Z,82.90
2019-05-22T09:18:03.739Z,81.91
2019-05-22T09:20:47.984Z,82.00
2019-05-22T09:23:03.613Z,81.10
2019-05-22T09:25:33.557Z,81.61
2019-05-22T09:28:03.810Z,81.29
2019-05-22T09:30:33.747Z,81.18
2019-05-22T09:33:03.678Z,81.07
2019-05-22T09:35:33.951Z,80.97
2019-05-22T09:38:03.884Z,82.31
2019-05-22T09:40:33.857Z,80.80
2019-05-22T09:43:03.974Z,81.57
2019-05-22T09:45:33.710Z,81.92
2019-05-22T09:48:03.657Z,81.96
2019-05-22T09:50:33.611Z,81.88
2019-05-22T09:53:03.528Z,80.99
2019-05-22T09:55:33.492Z,81.05
2019-05-22T09:58:03.685Z,80.79
2019-05-22T10:00:33.618Z,80.32
2019-05-22T10:03:03.948Z,80.44
2019-05-22T10:05:33.941Z,81.65
2019-05-22T10:08:03.858Z,81.28
2019-05-22T10:10:33.800Z,79.62
2019-05-22T10:13:03.739Z,78.95
2019-05-22T10:15:33.679Z,79.47
2019-05-22T10:18:03.641Z,79.77
2019-05-22T10:20:33.941Z,79.46
2019-05-22T10:23:14.719Z,79.43
2019-05-22T10:25:33.797Z,79.39
2019-05-22T10:28:04.003Z,79.42
2019-05-22T10:30:33.946Z,79.88
2019-05-22T10:33:03.897Z,79.77
2019-05-22T10:35:33.825Z,80.20
2019-05-22T10:38:04.035Z,81.74
2019-05-22T10:40:33.958Z,81.82
2019-05-22T10:43:03.938Z,82.23
2019-05-22T10:45:33.817Z,81.92
2019-05-22T10:48:03.753Z,80.46
2019-05-22T10:50:33.701Z,81.58
2019-05-22T10:53:03.643Z,80.26
2019-05-22T10:55:33.563Z,80.72
2019-05-22T10:58:03.497Z,79.64
2019-05-22T11:00:33.434Z,80.94
2019-05-22T11:03:03.375Z,79.97
2019-05-22T11:05:33.314Z,80.76
2019-05-22T11:08:03.606Z,79.77
2019-05-22T11:10:33.824Z,79.96
2019-05-22T11:13:03.740Z,80.04
2019-05-22T11:15:33.987Z,80.36
2019-05-22T11:18:03.908Z,80.39
2019-05-22T11:20:33.841Z,80.31
2019-05-22T11:23:03.792Z,80.72
2019-05-22T11:25:33.706Z,80.20
2019-05-22T11:28:03.635Z,81.90
2019-05-22T11:30:33.564Z,82.89
2019-05-22T11:33:03.489Z,82.38
2019-05-22T11:35:33.414Z,81.99
2019-05-22T11:38:03.705Z,83.01
2019-05-22T11:40:33.625Z,83.39
2019-05-22T11:43:03.566Z,83.86
2019-05-22T11:45:33.475Z,82.40
2019-05-22T11:48:03.713Z,81.97
2019-05-22T11:50:33.356Z,81.60
2019-05-22T11:53:03.301Z,81.73
2019-05-22T11:55:43.734Z,82.59
2019-05-22T11:58:03.444Z,82.16
2019-05-22T12:00:33.394Z,81.87
2019-05-22T12:03:03.645Z,82.29
2019-05-22T12:05:33.637Z,81.11
2019-05-22T12:08:03.565Z,80.45
2019-05-22T12:10:33.787Z,81.54
2019-05-22T12:13:04.018Z,80.59
2019-05-22T12:15:33.958Z,81.73
2019-05-22T12:18:03.899Z,80.73
2019-05-22T12:20:33.864Z,80.60
2019-05-22T12:23:03.778Z,81.21
2019-05-22T12:25:33.713Z,80.81
2019-05-22T12:28:03.670Z,79.87
2019-05-22T12:30:33.620Z,80.23
2019-05-22T12:33:03.560Z,80.99
2019-05-22T12:35:33.479Z,80.67
2019-05-22T12:38:03.768Z,81.15
2019-05-22T12:40:33.711Z,82.54
2019-05-22T12:43:03.629Z,83.30
2019-05-22T12:45:33.589Z,82.70
2019-05-22T12:48:03.496Z,81.92
2019-05-22T12:50:33.438Z,80.66
2019-05-22T12:53:03.395Z,80.40
2019-05-22T12:55:33.301Z,78.80
2019-05-22T12:58:03.234Z,78.53
2019-05-22T13:00:33.171Z,78.30
2019-05-22T13:03:03.091Z,78.89
2019-05-22T13:05:33.318Z,79.82
2019-05-22T13:08:03.261Z,80.31
2019-05-22T13:10:33.199Z,80.43
2019-05-22T13:13:03.470Z,80.61
2019-05-22T13:15:33.680Z,80.82
2019-05-22T13:18:03.737Z,80.45
2019-05-22T13:20:42.507Z,78.85
2019-05-22T13:23:03.620Z,79.11
2019-05-22T13:25:33.553Z,77.56
2019-05-22T13:28:03.514Z,77.84
2019-05-22T13:30:33.430Z,78.24
2019-05-22T13:33:03.681Z,79.04
2019-05-22T13:35:33.615Z,77.76
2019-05-22T13:38:03.549Z,79.12
2019-05-22T13:40:33.503Z,79.86
2019-05-22T13:45:43.077Z,79.40
2019-05-22T13:48:13.296Z,79.46
2019-05-22T13:50:43.247Z,77.84
2019-05-22T13:53:13.171Z,77.83
2019-05-22T13:55:43.095Z,78.34
2019-05-22T14:00:52.346Z,75.84
2019-05-22T14:03:22.272Z,77.16
2019-05-22T14:08:31.564Z,76.29
2019-05-22T14:11:01.492Z,76.35
2019-05-22T14:13:31.681Z,76.65
2019-05-22T14:16:01.623Z,78.82
2019-05-22T14:21:10.897Z,80.94
2019-05-22T14:23:41.065Z,80.95
2019-05-22T14:26:10.996Z,81.99
2019-05-22T14:28:41.204Z,81.06
2019-05-22T14:31:11.145Z,82.02
2019-05-22T14:33:41.336Z,82.05
2019-05-22T14:36:11.276Z,81.94
2019-05-22T14:41:20.925Z,81.46
2019-05-22T14:43:50.846Z,81.73
2019-05-22T14:46:21.159Z,80.58
2019-05-22T14:48:51.092Z,80.56
2019-05-22T14:51:21.295Z,80.91
2019-05-22T14:56:30.571Z,79.71
2019-05-22T14:59:00.846Z,80.37
2019-05-22T15:01:31.123Z,80.89
2019-05-22T15:04:01.009Z,79.15
2019-05-22T15:06:30.957Z,78.62
2019-05-22T15:09:00.933Z,78.99
2019-05-22T15:11:30.871Z,79.20
2019-05-22T15:14:00.790Z,79.37
2019-05-22T15:16:30.742Z,79.25
2019-05-22T15:19:00.678Z,78.89
2019-05-22T15:21:30.607Z,79.97
2019-05-22T15:24:00.903Z,80.35
2019-05-22T15:26:30.831Z,80.66
2019-05-22T15:29:00.770Z,80.09
2019-05-22T15:31:30.708Z,81.12
2019-05-22T15:34:00.970Z,79.99
2019-05-22T15:36:30.899Z,78.98
2019-05-22T15:39:01.246Z,79.42
2019-05-22T15:44:10.484Z,79.49
2019-05-22T15:46:40.403Z,78.35
2019-05-22T15:49:10.348Z,77.99
2019-05-22T15:51:40.290Z,78.32
2019-05-22T15:54:10.264Z,77.13
2019-05-22T15:56:40.163Z,77.37
2019-05-22T15:59:10.115Z,76.59
2019-05-22T16:01:40.026Z,76.71
2019-05-22T16:06:49.033Z,76.84
2019-05-22T16:09:19.122Z,75.19
2019-05-22T16:14:28.257Z,76.54
2019-05-22T16:16:58.211Z,75.45
2019-05-22T16:19:28.482Z,77.05
2019-05-22T16:21:58.446Z,75.10
2019-05-22T16:24:28.660Z,75.83
2019-05-22T16:26:58.845Z,75.33
2019-05-22T16:29:29.187Z,76.42
2019-05-22T16:31:59.095Z,75.84
2019-05-22T16:37:08.396Z,76.63
2019-05-22T16:39:38.363Z,76.35
2019-05-22T16:42:08.271Z,76.96
2019-05-22T16:44:38.227Z,77.00
2019-05-22T16:47:08.158Z,75.24
2019-05-22T16:49:38.101Z,73.44
2019-05-22T16:52:08.307Z,74.49
2019-05-22T16:54:38.240Z,73.33
2019-05-22T16:57:08.197Z,73.71
2019-05-22T17:02:17.456Z,73.76
2019-05-22T17:04:47.696Z,73.42
2019-05-22T17:07:17.922Z,72.41
2019-05-22T17:12:27.576Z,72.83
2019-05-22T17:14:57.828Z,71.91
2019-05-22T17:17:27.745Z,71.18
2019-05-22T17:19:57.691Z,70.59
2019-05-22T17:22:27.979Z,70.24
2019-05-22T17:27:37.528Z,70.92
2019-05-22T17:30:07.749Z,72.43
2019-05-22T17:32:37.941Z,73.14
2019-05-22T17:35:07.886Z,72.35
2019-05-22T17:37:37.807Z,70.43
2019-05-22T17:40:08.431Z,70.77
2019-05-22T17:42:38.285Z,70.29
2019-05-22T17:45:08.294Z,71.13
2019-05-22T17:47:38.206Z,71.15
2019-05-22T17:50:25.452Z,70.59
2019-05-22T17:52:40.830Z,69.88
2019-05-22T17:55:11.076Z,70.50
2019-05-22T17:57:41.023Z,70.77
2019-05-22T18:00:10.964Z,71.06
2019-05-22T18:02:41.209Z,70.58
2019-05-22T18:07:52.508Z,70.58
2019-05-22T18:10:22.453Z,71.58
2019-05-22T18:12:52.745Z,70.82
2019-05-22T18:15:22.964Z,70.42
2019-05-22T18:17:52.887Z,70.30
2019-05-22T18:20:22.911Z,69.97
2019-05-22T18:22:52.857Z,70.39
2019-05-22T18:25:22.775Z,70.81
2019-05-22T18:27:52.712Z,70.94
2019-05-22T18:30:22.672Z,70.36
2019-05-22T18:32:52.620Z,71.13
2019-05-22T18:35:22.540Z,71.67
2019-05-22T18:37:52.462Z,71.31
2019-05-22T18:40:22.703Z,72.06
2019-05-22T18:42:53.063Z,72.39
2019-05-22T18:45:23.373Z,72.43
2019-05-22T18:47:53.705Z,72.54
2019-05-22T18:50:23.642Z,72.88
2019-05-22T18:52:53.814Z,73.83
2019-05-22T18:55:23.745Z,73.45
2019-05-22T18:57:53.781Z,73.61
2019-05-22T19:00:23.710Z,74.63
2019-05-22T19:02:53.798Z,75.26
2019-05-22T19:05:23.712Z,75.97
2019-05-22T19:07:53.815Z,76.42
2019-05-22T19:13:03.488Z,77.53
2019-05-22T19:15:33.856Z,77.89
2019-05-22T19:18:03.809Z,78.49
2019-05-22T19:20:33.843Z,78.84
2019-05-22T19:23:03.752Z,79.14
2019-05-22T19:25:33.808Z,79.13
2019-05-22T19:28:04.120Z,78.72
2019-05-22T19:30:34.032Z,79.26
2019-05-22T19:33:04.159Z,79.97
2019-05-22T19:35:34.426Z,79.74
2019-05-22T19:40:44.410Z,79.62
2019-05-22T19:43:14.711Z,79.78
2019-05-22T19:45:44.691Z,79.68
2019-05-22T19:48:14.729Z,79.60
2019-05-22T19:50:45.298Z,79.74
2019-05-22T19:53:19.149Z,79.70
2019-05-22T19:55:45.018Z,79.75
2019-05-22T19:58:14.924Z,79.62
2019-05-22T20:00:45.115Z,79.82
2019-05-22T20:03:15.077Z,79.70
2019-05-22T20:05:45.352Z,80.60
2019-05-22T20:08:15.317Z,80.69
2019-05-22T20:10:45.212Z,80.20
2019-05-22T20:13:15.158Z,79.89
2019-05-22T20:15:45.074Z,79.75
2019-05-22T20:18:15.017Z,80.06
2019-05-22T20:20:44.947Z,79.89
2019-05-22T20:23:14.892Z,80.08
2019-05-22T20:25:44.847Z,79.94
2019-05-22T20:28:14.785Z,80.09
2019-05-22T20:30:44.709Z,80.18
2019-05-22T20:33:14.876Z,80.13
2019-05-22T20:35:44.749Z,80.17
2019-05-22T20:38:14.693Z,80.17
2019-05-22T20:40:44.622Z,80.20
2019-05-22T20:43:14.577Z,80.48
2019-05-22T20:45:44.505Z,80.42
2019-05-22T20:48:14.699Z,80.27
2019-05-22T20:50:44.938Z,80.24
2019-05-22T20:53:15.122Z,80.51
2019-05-22T20:55:45.090Z,80.42
2019-05-22T20:58:15.277Z,80.32
2019-05-22T21:00:45.193Z,80.49
2019-05-22T21:03:15.125Z,80.93
2019-05-22T21:05:45.039Z,81.07
2019-05-22T21:08:15.364Z,81.02
2019-05-22T21:10:45.810Z,80.68
2019-05-22T21:13:15.732Z,80.81
2019-05-22T21:15:45.997Z,80.86
2019-05-22T21:18:15.944Z,81.29
2019-05-22T21:20:54.887Z,80.55
2019-05-22T21:23:15.844Z,81.18
2019-05-22T21:25:45.789Z,81.24
2019-05-22T21:28:15.718Z,81.43
2019-05-22T21:30:45.630Z,81.59
2019-05-22T21:33:15.894Z,81.34
2019-05-22T21:35:45.808Z,81.83
2019-05-22T21:38:15.733Z,81.80
2019-05-22T21:40:45.653Z,81.90
2019-05-22T21:43:15.825Z,81.97
2019-05-22T21:45:45.760Z,81.92
2019-05-22T21:48:15.949Z,81.73
2019-05-22T21:50:45.870Z,81.11
2019-05-22T21:53:16.133Z,82.42
2019-05-22T21:55:46.287Z,82.43
2019-05-22T21:58:16.215Z,82.25
2019-05-22T22:03:25.808Z,82.45
2019-05-22T22:05:56.027Z,82.57
2019-05-22T22:08:26.298Z,82.46
2019-05-22T22:10:56.223Z,83.14
2019-05-22T22:13:26.488Z,83.27
2019-05-22T22:15:56.415Z,82.91
2019-05-22T22:18:26.624Z,82.67
2019-05-22T22:20:56.542Z,82.04
2019-05-22T22:23:26.505Z,83.07
2019-05-22T22:25:56.417Z,83.21
2019-05-22T22:28:26.688Z,82.82
2019-05-22T22:30:56.616Z,82.51
2019-05-22T22:33:29.264Z,82.40
2019-05-22T22:35:59.490Z,82.40
2019-05-22T22:41:09.053Z,82.75
2019-05-22T22:43:38.975Z,82.69
2019-05-22T22:48:48.219Z,82.48
2019-05-22T22:51:18.153Z,82.74
2019-05-22T22:53:48.460Z,82.81
2019-05-22T22:56:18.388Z,83.07
2019-05-22T22:58:48.592Z,82.89
2019-05-22T23:01:25.060Z,82.79
2019-05-22T23:03:54.997Z,82.44
2019-05-22T23:06:24.905Z,82.48
2019-05-22T23:08:54.853Z,82.53
2019-05-22T23:11:25.117Z,82.58
2019-05-22T23:13:55.055Z,82.74
2019-05-22T23:16:25.344Z,82.85
2019-05-22T23:18:57.892Z,82.87
2019-05-22T23:21:27.277Z,82.63
2019-05-22T23:23:57.038Z,82.71
2019-05-22T23:26:27.261Z,82.70
2019-05-22T23:28:57.174Z,82.71
2019-05-22T23:34:06.450Z,82.60
2019-05-22T23:36:36.352Z,82.73
2019-05-22T23:41:45.987Z,82.54
2019-05-22T23:46:55.537Z,82.84
2019-05-22T23:49:25.465Z,82.79
2019-05-22T23:51:55.376Z,82.82
2019-05-22T23:54:25.336Z,82.91
2019-05-22T23:59:34.845Z,83.40
